Time;durP1;ratioP1;P1;durP2;ratioP2;P2;SDS_P1;SDS_P2;PMS_P1;PMS_P2;Temp;Humidity;BMP_temperature;BMP_pressure;BME280_temperature;BME280_humidity;BME280_pressure;Samples;Min_cycle;Max_cycle;Signal;HPM_P1;HPM_P2
2023/08/06 00:00:03;;;;;;;2.87;1.70;;;;;;;;;;4922228;29;20465;-73
2023/08/06 00:02:31;;;;;;;3.23;1.87;;;;;;;;;;4924229;29;20479;-71
2023/08/06 00:04:59;;;;;;;2.63;1.93;;;;;;;;;;4923381;29;20477;-71
2023/08/06 00:07:26;;;;;;;3.10;2.17;;;;;;;;;;4920766;29;20467;-71
2023/08/06 00:09:53;;;;;;;3.10;2.00;;;;;;;;;;4918554;29;20937;-71
2023/08/06 00:12:20;;;;;;;3.40;2.20;;;;;;;;;;4916762;29;20493;-72
2023/08/06 00:14:51;;;;;;;3.07;1.93;;;;;;;;;;4918480;29;20484;-71
2023/08/06 00:17:19;;;;;;;5.60;2.60;;;;;;;;;;4916040;29;20468;-71
2023/08/06 00:19:47;;;;;;;3.20;1.70;;;;;;;;;;4918822;29;20531;-71
2023/08/06 00:22:14;;;;;;;3.73;2.30;;;;;;;;;;4915426;29;20480;-71
2023/08/06 00:24:42;;;;;;;4.40;2.77;;;;;;;;;;4919487;29;20475;-71
2023/08/06 00:27:09;;;;;;;4.00;1.67;;;;;;;;;;4917499;29;20459;-73
2023/08/06 00:29:36;;;;;;;2.97;1.70;;;;;;;;;;4921809;29;20468;-72
2023/08/06 00:32:03;;;;;;;3.07;1.97;;;;;;;;;;4917459;29;20979;-71
2023/08/06 00:34:31;;;;;;;3.57;2.07;;;;;;;;;;4923005;29;20567;-71
2023/08/06 00:37:00;;;;;;;3.37;2.07;;;;;;;;;;4926578;29;20504;-72
2023/08/06 00:39:27;;;;;;;2.80;2.20;;;;;;;;;;4918631;29;20464;-70
2023/08/06 00:41:54;;;;;;;2.60;1.50;;;;;;;;;;4921478;29;20512;-71
2023/08/06 00:44:21;;;;;;;3.10;2.00;;;;;;;;;;4925510;28;20456;-71
2023/08/06 00:46:49;;;;;;;2.40;1.70;;;;;;;;;;4923957;29;20551;-71
2023/08/06 00:49:16;;;;;;;4.93;2.57;;;;;;;;;;4923470;29;20564;-71
2023/08/06 00:51:44;;;;;;;4.40;1.63;;;;;;;;;;4914086;29;20924;-71
2023/08/06 00:54:12;;;;;;;3.20;2.10;;;;;;;;;;4920905;29;20459;-71
2023/08/06 00:56:41;;;;;;;2.67;1.80;;;;;;;;;;4917299;29;20544;-70
2023/08/06 00:59:08;;;;;;;3.97;2.80;;;;;;;;;;4925679;29;20460;-71
2023/08/06 01:01:35;;;;;;;2.47;1.30;;;;;;;;;;4919927;29;20479;-71
2023/08/06 01:04:02;;;;;;;3.27;1.73;;;;;;;;;;4916306;29;20461;-72
2023/08/06 01:06:35;;;;;;;3.13;1.57;;;;;;;;;;4921189;29;20465;-71
2023/08/06 01:09:04;;;;;;;3.40;2.40;;;;;;;;;;4917984;29;20460;-71
2023/08/06 01:11:35;;;;;;;2.57;1.67;;;;;;;;;;4918015;29;20868;-71
2023/08/06 01:14:04;;;;;;;2.87;2.30;;;;;;;;;;4921708;29;20468;-71
2023/08/06 01:16:32;;;;;;;6.57;1.93;;;;;;;;;;4923436;29;20551;-71
2023/08/06 01:19:00;;;;;;;3.20;1.93;;;;;;;;;;4916673;29;20496;-71
2023/08/06 01:21:28;;;;;;;4.33;2.10;;;;;;;;;;4915342;29;20572;-71
2023/08/06 01:23:56;;;;;;;3.30;1.70;;;;;;;;;;4921032;29;20564;-71
2023/08/06 01:26:26;;;;;;;5.43;2.20;;;;;;;;;;4919247;29;20585;-71
2023/08/06 01:28:56;;;;;;;2.73;1.50;;;;;;;;;;4916773;29;21359;-70
2023/08/06 01:31:26;;;;;;;3.07;2.00;;;;;;;;;;4920394;29;20952;-70
2023/08/06 01:33:54;;;;;;;3.90;1.63;;;;;;;;;;4923619;29;20526;-70
2023/08/06 01:36:22;;;;;;;2.80;1.80;;;;;;;;;;4920779;29;20550;-71
2023/08/06 01:38:52;;;;;;;3.10;1.97;;;;;;;;;;4921611;29;20503;-70
2023/08/06 01:41:19;;;;;;;2.30;1.17;;;;;;;;;;4917286;29;20508;-71
2023/08/06 01:43:46;;;;;;;3.37;1.60;;;;;;;;;;4917193;28;20531;-70
2023/08/06 01:46:14;;;;;;;5.00;2.13;;;;;;;;;;4924677;29;20959;-71
2023/08/06 01:48:41;;;;;;;2.97;1.60;;;;;;;;;;4931591;29;20543;-71
2023/08/06 01:51:08;;;;;;;2.50;1.50;;;;;;;;;;4939832;29;20452;-70
2023/08/06 01:53:35;;;;;;;3.30;1.33;;;;;;;;;;4927276;29;20556;-70
2023/08/06 01:56:04;;;;;;;3.10;1.83;;;;;;;;;;4921405;29;20593;-71
2023/08/06 01:58:31;;;;;;;3.33;1.43;;;;;;;;;;4922640;29;20515;-71
2023/08/06 02:00:59;;;;;;;2.33;1.23;;;;;;;;;;4921477;29;20459;-70
2023/08/06 02:03:26;;;;;;;2.90;1.47;;;;;;;;;;4924288;29;20893;-72
2023/08/06 02:05:53;;;;;;;3.40;2.00;;;;;;;;;;4917524;29;20844;-70
2023/08/06 02:08:21;;;;;;;3.57;1.60;;;;;;;;;;4919043;29;20456;-70
2023/08/06 02:10:48;;;;;;;2.80;1.77;;;;;;;;;;4913799;29;20470;-70
2023/08/06 02:13:16;;;;;;;3.00;1.50;;;;;;;;;;4918408;29;20484;-71
2023/08/06 02:15:44;;;;;;;2.83;1.27;;;;;;;;;;4915058;29;20591;-71
2023/08/06 02:18:12;;;;;;;2.53;1.60;;;;;;;;;;4922930;29;20465;-71
2023/08/06 02:20:39;;;;;;;2.20;1.30;;;;;;;;;;4918118;29;20492;-70
2023/08/06 02:23:06;;;;;;;2.77;1.83;;;;;;;;;;4924954;29;20506;-70
2023/08/06 02:25:33;;;;;;;2.80;1.60;;;;;;;;;;4921630;29;20877;-71
2023/08/06 02:28:00;;;;;;;2.43;1.57;;;;;;;;;;4919277;29;20557;-71
2023/08/06 02:30:29;;;;;;;2.97;1.50;;;;;;;;;;4921861;29;20536;-71
2023/08/06 02:32:56;;;;;;;2.90;1.60;;;;;;;;;;4919581;29;21209;-70
2023/08/06 02:35:24;;;;;;;2.53;1.30;;;;;;;;;;4922011;29;20790;-71
2023/08/06 02:37:51;;;;;;;2.50;1.47;;;;;;;;;;4927972;29;20566;-70
2023/08/06 02:40:18;;;;;;;3.60;1.63;;;;;;;;;;4920203;29;20489;-71
2023/08/06 02:42:45;;;;;;;3.07;1.90;;;;;;;;;;4924561;29;20856;-70
2023/08/06 02:45:12;;;;;;;3.10;1.43;;;;;;;;;;4923630;29;20579;-70
2023/08/06 02:47:41;;;;;;;2.33;1.30;;;;;;;;;;4925319;29;20869;-71
2023/08/06 02:50:09;;;;;;;2.57;1.53;;;;;;;;;;4925904;29;20527;-71
2023/08/06 02:52:38;;;;;;;2.67;1.20;;;;;;;;;;4927367;29;20508;-71
2023/08/06 02:55:06;;;;;;;3.07;1.77;;;;;;;;;;4923578;29;20878;-71
2023/08/06 02:57:33;;;;;;;3.73;1.40;;;;;;;;;;4919486;29;20836;-71
2023/08/06 03:00:00;;;;;;;2.63;1.53;;;;;;;;;;4925571;29;20867;-71
2023/08/06 03:02:27;;;;;;;2.53;1.33;;;;;;;;;;4921360;29;20488;-71
2023/08/06 03:04:56;;;;;;;2.50;1.23;;;;;;;;;;4922548;29;20551;-71
2023/08/06 03:07:23;;;;;;;2.73;1.60;;;;;;;;;;4917776;29;20945;-71
2023/08/06 03:09:51;;;;;;;2.40;1.27;;;;;;;;;;4920738;29;20461;-71
2023/08/06 03:12:18;;;;;;;2.27;1.30;;;;;;;;;;4921093;29;21748;-71
2023/08/06 03:14:45;;;;;;;1.90;1.10;;;;;;;;;;4924550;29;20869;-71
2023/08/06 03:17:12;;;;;;;2.10;1.30;;;;;;;;;;4920389;29;20499;-71
2023/08/06 03:19:39;;;;;;;3.20;1.33;;;;;;;;;;4923087;29;20472;-71
2023/08/06 03:22:08;;;;;;;3.00;1.10;;;;;;;;;;4918015;29;20580;-71
2023/08/06 03:24:35;;;;;;;2.90;1.33;;;;;;;;;;4919193;29;20551;-72
2023/08/06 03:27:02;;;;;;;2.40;1.20;;;;;;;;;;4915498;29;20456;-71
2023/08/06 03:29:30;;;;;;;2.30;1.23;;;;;;;;;;4924511;29;20507;-71
2023/08/06 03:31:57;;;;;;;2.73;1.20;;;;;;;;;;4915222;29;20497;-71
2023/08/06 03:34:24;;;;;;;2.23;1.33;;;;;;;;;;4917582;29;20784;-71
2023/08/06 03:36:51;;;;;;;2.40;1.13;;;;;;;;;;4920329;29;20577;-72
2023/08/06 03:39:20;;;;;;;2.57;1.37;;;;;;;;;;4926242;29;20536;-70
2023/08/06 03:41:47;;;;;;;1.93;1.13;;;;;;;;;;4927529;29;20494;-72
2023/08/06 03:44:14;;;;;;;2.40;1.40;;;;;;;;;;4924790;29;21009;-71
2023/08/06 03:46:41;;;;;;;2.53;1.10;;;;;;;;;;4926198;29;20460;-71
2023/08/06 03:49:08;;;;;;;2.43;1.10;;;;;;;;;;4927611;29;20830;-71
2023/08/06 03:51:36;;;;;;;2.73;1.80;;;;;;;;;;4921357;29;20484;-70
2023/08/06 03:54:03;;;;;;;2.37;1.23;;;;;;;;;;4919313;29;20463;-70
2023/08/06 03:56:31;;;;;;;2.60;1.60;;;;;;;;;;4924474;29;20469;-70
2023/08/06 03:58:58;;;;;;;1.87;1.17;;;;;;;;;;4944096;29;20488;-68
2023/08/06 04:01:26;;;;;;;2.90;1.53;;;;;;;;;;4932510;29;20667;-70
2023/08/06 04:03:53;;;;;;;2.40;1.07;;;;;;;;;;4918849;29;20488;-71
2023/08/06 04:06:20;;;;;;;2.60;1.30;;;;;;;;;;4924256;29;20495;-70
2023/08/06 04:08:47;;;;;;;2.70;1.67;;;;;;;;;;4920662;29;20843;-70
2023/08/06 04:11:14;;;;;;;2.83;1.63;;;;;;;;;;4921449;29;20467;-70
2023/08/06 04:13:45;;;;;;;3.13;1.80;;;;;;;;;;4922081;29;20479;-70
2023/08/06 04:16:13;;;;;;;3.30;1.40;;;;;;;;;;4925187;29;20552;-70
2023/08/06 04:18:40;;;;;;;2.30;1.10;;;;;;;;;;4924898;29;20464;-71
2023/08/06 04:21:07;;;;;;;2.47;1.10;;;;;;;;;;4922384;29;20888;-70
2023/08/06 04:23:35;;;;;;;3.20;1.43;;;;;;;;;;4922785;29;20519;-70
2023/08/06 04:26:02;;;;;;;5.50;2.40;;;;;;;;;;4923770;29;20563;-71
2023/08/06 04:28:29;;;;;;;2.67;1.53;;;;;;;;;;4921342;29;20468;-70
2023/08/06 04:30:57;;;;;;;3.00;1.30;;;;;;;;;;4918915;29;20471;-70
2023/08/06 04:33:24;;;;;;;2.63;1.37;;;;;;;;;;4918390;29;20905;-70
2023/08/06 04:35:56;;;;;;;3.13;1.43;;;;;;;;;;4917741;29;20899;-70
2023/08/06 04:38:24;;;;;;;2.37;1.23;;;;;;;;;;4915265;29;20844;-71
2023/08/06 04:40:52;;;;;;;3.70;1.37;;;;;;;;;;4915538;29;20462;-71
2023/08/06 04:43:19;;;;;;;2.27;1.23;;;;;;;;;;4922266;29;20476;-71
2023/08/06 04:45:49;;;;;;;2.93;1.20;;;;;;;;;;4921841;29;20475;-71
2023/08/06 04:48:18;;;;;;;1.90;1.00;;;;;;;;;;4918563;29;20570;-70
2023/08/06 04:50:45;;;;;;;2.50;1.30;;;;;;;;;;4922245;29;20470;-71
2023/08/06 04:53:13;;;;;;;3.10;1.40;;;;;;;;;;4920401;29;20859;-71
2023/08/06 04:55:40;;;;;;;1.97;1.07;;;;;;;;;;4914590;29;20461;-72
2023/08/06 04:58:07;;;;;;;2.10;1.00;;;;;;;;;;4921706;29;20436;-71
2023/08/06 05:00:34;;;;;;;1.90;0.97;;;;;;;;;;4914991;29;20551;-71
2023/08/06 05:03:02;;;;;;;2.57;1.63;;;;;;;;;;4923367;29;20479;-70
2023/08/06 05:05:31;;;;;;;2.87;1.27;;;;;;;;;;4918597;29;20649;-70
2023/08/06 05:07:58;;;;;;;2.30;0.97;;;;;;;;;;4921601;29;20469;-71
2023/08/06 05:10:26;;;;;;;1.90;1.10;;;;;;;;;;4919184;29;20463;-71
2023/08/06 05:12:53;;;;;;;2.20;1.07;;;;;;;;;;4921911;29;20483;-71
2023/08/06 05:15:20;;;;;;;2.13;1.20;;;;;;;;;;4922585;29;20444;-72
2023/08/06 05:17:47;;;;;;;2.73;1.10;;;;;;;;;;4926385;29;20479;-71
2023/08/06 05:20:14;;;;;;;2.37;1.17;;;;;;;;;;4919248;29;20579;-72
2023/08/06 05:22:43;;;;;;;2.17;1.00;;;;;;;;;;4921112;29;20528;-72
2023/08/06 05:25:10;;;;;;;1.80;0.70;;;;;;;;;;4919281;29;21142;-71
2023/08/06 05:27:38;;;;;;;2.03;0.87;;;;;;;;;;4921766;29;20923;-71
2023/08/06 05:30:07;;;;;;;2.30;0.93;;;;;;;;;;4921860;29;20507;-71
2023/08/06 05:32:35;;;;;;;3.50;0.70;;;;;;;;;;4922782;29;20490;-71
2023/08/06 05:35:02;;;;;;;1.90;0.70;;;;;;;;;;4917935;29;20465;-71
2023/08/06 05:37:30;;;;;;;1.80;0.73;;;;;;;;;;4921477;29;20490;-71
2023/08/06 05:39:58;;;;;;;3.00;0.90;;;;;;;;;;4923024;29;20602;-71
2023/08/06 05:42:25;;;;;;;1.83;0.60;;;;;;;;;;4920082;29;20492;-72
2023/08/06 05:44:53;;;;;;;2.83;0.80;;;;;;;;;;4921949;29;20831;-72
2023/08/06 05:47:20;;;;;;;1.63;0.70;;;;;;;;;;4921449;29;20542;-71
2023/08/06 05:49:47;;;;;;;1.70;0.50;;;;;;;;;;4922789;29;20886;-72
2023/08/06 05:52:14;;;;;;;1.47;0.50;;;;;;;;;;4913669;29;20491;-72
2023/08/06 05:54:41;;;;;;;1.70;0.80;;;;;;;;;;4922296;29;20835;-71
2023/08/06 05:57:10;;;;;;;1.40;0.40;;;;;;;;;;4923900;29;20459;-71
2023/08/06 05:59:37;;;;;;;1.50;0.50;;;;;;;;;;4925992;29;21039;-71
2023/08/06 06:02:04;;;;;;;1.40;0.50;;;;;;;;;;4920336;29;20997;-71
2023/08/06 06:04:32;;;;;;;2.17;0.50;;;;;;;;;;4931971;29;20463;-70
2023/08/06 06:06:59;;;;;;;2.53;0.73;;;;;;;;;;4944786;29;20818;-71
2023/08/06 06:09:26;;;;;;;1.60;0.63;;;;;;;;;;4931958;29;20452;-71
2023/08/06 06:11:53;;;;;;;1.50;0.50;;;;;;;;;;4919668;29;20485;-71
2023/08/06 06:14:21;;;;;;;1.50;0.50;;;;;;;;;;4922245;29;20994;-71
2023/08/06 06:16:49;;;;;;;2.60;0.53;;;;;;;;;;4920638;29;20468;-70
2023/08/06 06:19:16;;;;;;;2.43;0.73;;;;;;;;;;4919691;29;20464;-71
2023/08/06 06:21:43;;;;;;;3.63;0.77;;;;;;;;;;4927031;29;20503;-67
2023/08/06 06:24:10;;;;;;;1.90;0.60;;;;;;;;;;4926433;29;20445;-68
2023/08/06 06:26:37;;;;;;;1.50;0.50;;;;;;;;;;4929517;29;20436;-66
2023/08/06 06:29:04;;;;;;;1.70;0.60;;;;;;;;;;4924720;29;20451;-66
2023/08/06 06:31:33;;;;;;;1.40;0.47;;;;;;;;;;4922631;29;20542;-66
2023/08/06 06:34:00;;;;;;;1.60;0.50;;;;;;;;;;4920754;29;20566;-68
2023/08/06 06:36:27;;;;;;;1.57;0.50;;;;;;;;;;4922967;29;20465;-67
2023/08/06 06:38:54;;;;;;;1.70;0.67;;;;;;;;;;4924422;29;20528;-65
2023/08/06 06:41:22;;;;;;;1.80;0.90;;;;;;;;;;4924059;28;20457;-66
2023/08/06 06:43:49;;;;;;;1.50;0.50;;;;;;;;;;4924716;29;20519;-65
2023/08/06 06:46:16;;;;;;;2.43;0.70;;;;;;;;;;4928802;29;20458;-67
2023/08/06 06:48:44;;;;;;;1.60;0.50;;;;;;;;;;4926391;29;20440;-67
2023/08/06 06:51:12;;;;;;;1.50;0.50;;;;;;;;;;4925073;29;20444;-66
2023/08/06 06:53:39;;;;;;;3.10;1.10;;;;;;;;;;4924659;29;20582;-66
2023/08/06 06:56:06;;;;;;;1.80;1.20;;;;;;;;;;4923940;29;20455;-66
2023/08/06 06:58:34;;;;;;;1.40;0.50;;;;;;;;;;4929340;29;20798;-66
2023/08/06 07:01:01;;;;;;;1.50;0.57;;;;;;;;;;4930542;29;20451;-66
2023/08/06 07:03:28;;;;;;;2.07;0.60;;;;;;;;;;4923208;29;20496;-67
2023/08/06 07:06:00;;;;;;;1.50;0.50;;;;;;;;;;4925488;29;20470;-66
2023/08/06 07:08:27;;;;;;;1.40;0.50;;;;;;;;;;4923385;29;20453;-66
2023/08/06 07:11:01;;;;;;;1.87;0.50;;;;;;;;;;4921713;29;20459;-67
2023/08/06 07:13:28;;;;;;;1.50;0.60;;;;;;;;;;4925398;29;20748;-67
2023/08/06 07:15:56;;;;;;;1.73;0.57;;;;;;;;;;4926224;29;20495;-66
2023/08/06 07:18:23;;;;;;;1.40;0.50;;;;;;;;;;4925526;29;20961;-66
2023/08/06 07:20:50;;;;;;;1.40;0.50;;;;;;;;;;4920541;29;20448;-67
2023/08/06 07:23:19;;;;;;;1.60;0.50;;;;;;;;;;4916156;29;20510;-67
2023/08/06 07:25:48;;;;;;;1.60;0.60;;;;;;;;;;4928471;29;20477;-66
2023/08/06 07:28:15;;;;;;;2.20;0.80;;;;;;;;;;4923439;29;20644;-66
2023/08/06 07:30:42;;;;;;;1.60;0.73;;;;;;;;;;4923374;29;20443;-67
2023/08/06 07:33:10;;;;;;;1.70;0.67;;;;;;;;;;4922288;28;20492;-68
2023/08/06 07:35:37;;;;;;;1.60;0.57;;;;;;;;;;4923027;29;20473;-67
2023/08/06 07:38:04;;;;;;;1.60;0.60;;;;;;;;;;4924292;29;20468;-67
2023/08/06 07:40:33;;;;;;;1.53;0.57;;;;;;;;;;4926858;29;20555;-67
2023/08/06 07:43:00;;;;;;;1.60;0.60;;;;;;;;;;4924051;29;20488;-68
2023/08/06 07:45:28;;;;;;;1.50;0.60;;;;;;;;;;4926118;29;20487;-67
2023/08/06 07:47:55;;;;;;;1.80;0.57;;;;;;;;;;4923230;29;20850;-67
2023/08/06 07:50:22;;;;;;;2.37;0.60;;;;;;;;;;4924021;29;20441;-67
2023/08/06 07:52:49;;;;;;;1.40;0.40;;;;;;;;;;4923042;29;21078;-67
2023/08/06 07:55:16;;;;;;;5.00;0.50;;;;;;;;;;4924693;29;20444;-66
2023/08/06 07:57:45;;;;;;;1.40;0.50;;;;;;;;;;4923839;29;20837;-66
2023/08/06 08:00:12;;;;;;;1.40;0.40;;;;;;;;;;4922492;29;20444;-66
2023/08/06 08:02:40;;;;;;;1.43;0.47;;;;;;;;;;4924445;29;20508;-67
2023/08/06 08:05:08;;;;;;;1.90;0.70;;;;;;;;;;4928232;29;20474;-67
2023/08/06 08:07:35;;;;;;;1.60;0.50;;;;;;;;;;4925574;29;20456;-66
2023/08/06 08:10:03;;;;;;;1.40;0.50;;;;;;;;;;4937150;29;20433;-67
2023/08/06 08:12:30;;;;;;;1.57;0.50;;;;;;;;;;4935708;29;20476;-67
2023/08/06 08:14:58;;;;;;;1.40;0.40;;;;;;;;;;4940487;29;20480;-66
2023/08/06 08:17:26;;;;;;;1.40;0.40;;;;;;;;;;4928579;29;20496;-68
2023/08/06 08:19:53;;;;;;;1.40;0.50;;;;;;;;;;4926213;29;20831;-66
2023/08/06 08:22:20;;;;;;;1.50;0.50;;;;;;;;;;4925437;29;20579;-66
2023/08/06 08:24:47;;;;;;;1.43;0.50;;;;;;;;;;4928064;29;20474;-66
2023/08/06 08:27:14;;;;;;;1.40;0.50;;;;;;;;;;4929909;29;20474;-67
2023/08/06 08:29:41;;;;;;;1.40;0.40;;;;;;;;;;4919793;29;20451;-68
2023/08/06 08:32:10;;;;;;;1.40;0.40;;;;;;;;;;4921001;29;20502;-67
2023/08/06 08:34:37;;;;;;;1.60;0.50;;;;;;;;;;4922933;29;20476;-66
2023/08/06 08:37:06;;;;;;;1.40;0.50;;;;;;;;;;4922655;29;20531;-67
2023/08/06 08:39:33;;;;;;;1.60;0.70;;;;;;;;;;4922022;29;20548;-66
2023/08/06 08:42:01;;;;;;;2.83;0.40;;;;;;;;;;4926698;29;20503;-67
2023/08/06 08:44:29;;;;;;;1.37;0.40;;;;;;;;;;4922669;29;20854;-67
2023/08/06 08:46:56;;;;;;;1.40;0.47;;;;;;;;;;4922677;29;20449;-66
2023/08/06 08:49:25;;;;;;;1.40;0.50;;;;;;;;;;4918384;29;20798;-67
2023/08/06 08:51:52;;;;;;;1.40;0.40;;;;;;;;;;4927507;29;20464;-66
2023/08/06 08:54:20;;;;;;;1.40;0.40;;;;;;;;;;4920030;29;20487;-66
2023/08/06 08:56:47;;;;;;;1.83;0.50;;;;;;;;;;4922750;29;20447;-67
2023/08/06 08:59:14;;;;;;;1.50;0.40;;;;;;;;;;4918761;29;20480;-65
2023/08/06 09:01:42;;;;;;;1.40;0.40;;;;;;;;;;4921442;29;20459;-66
2023/08/06 09:04:09;;;;;;;2.43;0.70;;;;;;;;;;4921287;29;20990;-68
2023/08/06 09:06:38;;;;;;;1.50;0.50;;;;;;;;;;4924717;29;20472;-67
2023/08/06 09:09:08;;;;;;;1.40;0.40;;;;;;;;;;4922620;29;20456;-68
2023/08/06 09:11:40;;;;;;;1.50;0.50;;;;;;;;;;4921674;29;20547;-68
2023/08/06 09:14:08;;;;;;;1.87;0.57;;;;;;;;;;4922827;29;20531;-67
2023/08/06 09:16:36;;;;;;;1.40;0.50;;;;;;;;;;4923065;29;20496;-67
2023/08/06 09:19:08;;;;;;;1.40;0.50;;;;;;;;;;4926595;29;20475;-67
2023/08/06 09:21:39;;;;;;;1.50;0.47;;;;;;;;;;4922585;29;20470;-68
2023/08/06 09:24:10;;;;;;;1.40;0.40;;;;;;;;;;4916968;29;20835;-67
2023/08/06 09:26:37;;;;;;;1.40;0.40;;;;;;;;;;4922543;29;20949;-67
2023/08/06 09:29:06;;;;;;;1.43;0.43;;;;;;;;;;4927906;29;20446;-67
2023/08/06 09:31:35;;;;;;;1.40;0.40;;;;;;;;;;4927825;29;20470;-67
2023/08/06 09:34:02;;;;;;;1.50;0.50;;;;;;;;;;4930020;29;20480;-67
2023/08/06 09:36:29;;;;;;;1.40;0.50;;;;;;;;;;4930549;29;20455;-67
2023/08/06 09:38:58;;;;;;;1.50;0.50;;;;;;;;;;4926708;29;20492;-67
2023/08/06 09:41:29;;;;;;;2.17;0.50;;;;;;;;;;4928527;29;21022;-67
2023/08/06 09:43:56;;;;;;;1.70;0.57;;;;;;;;;;4926876;29;20538;-66
2023/08/06 09:46:23;;;;;;;1.40;0.40;;;;;;;;;;4927205;29;20514;-67
2023/08/06 09:48:52;;;;;;;1.60;0.60;;;;;;;;;;4928172;29;20440;-67
2023/08/06 09:51:19;;;;;;;1.50;0.50;;;;;;;;;;4926868;29;20554;-67
2023/08/06 09:53:47;;;;;;;1.40;0.43;;;;;;;;;;4920404;29;20458;-68
2023/08/06 09:56:15;;;;;;;1.40;0.50;;;;;;;;;;4926181;29;20495;-67
2023/08/06 09:58:43;;;;;;;1.40;0.40;;;;;;;;;;4929760;29;20929;-67
2023/08/06 10:01:10;;;;;;;1.40;0.40;;;;;;;;;;4929802;29;20528;-67
2023/08/06 10:03:38;;;;;;;1.83;0.60;;;;;;;;;;4923528;29;20470;-67
2023/08/06 10:06:07;;;;;;;1.40;0.50;;;;;;;;;;4923588;29;20453;-67
2023/08/06 10:08:34;;;;;;;1.40;0.40;;;;;;;;;;4923666;29;20895;-67
2023/08/06 10:11:02;;;;;;;1.40;0.40;;;;;;;;;;4929656;29;20539;-67
2023/08/06 10:13:31;;;;;;;1.40;0.40;;;;;;;;;;4927830;29;20462;-67
2023/08/06 10:15:58;;;;;;;1.67;0.50;;;;;;;;;;4926709;29;20519;-66
2023/08/06 10:18:26;;;;;;;1.40;0.40;;;;;;;;;;4925827;29;20440;-66
2023/08/06 10:20:54;;;;;;;1.40;0.40;;;;;;;;;;4925663;29;20531;-67
2023/08/06 10:23:21;;;;;;;1.50;0.40;;;;;;;;;;4920333;29;20727;-67
2023/08/06 10:25:56;;;;;;;1.40;0.40;;;;;;;;;;4985239;23;20507;-67
2023/08/06 10:28:23;;;;;;;1.70;0.50;;;;;;;;;;4936487;29;20450;-67
2023/08/06 10:30:52;;;;;;;1.40;0.40;;;;;;;;;;4935933;29;20464;-67
2023/08/06 10:33:22;;;;;;;1.40;0.40;;;;;;;;;;4936476;29;20464;-67
2023/08/06 10:35:50;;;;;;;1.40;0.40;;;;;;;;;;4937990;29;20534;-68
2023/08/06 10:38:18;;;;;;;1.37;0.40;;;;;;;;;;4935604;29;20462;-66
2023/08/06 10:40:50;;;;;;;1.40;0.40;;;;;;;;;;4937856;29;20522;-67
2023/08/06 10:43:26;;;;;;;1.40;0.40;;;;;;;;;;4936213;29;20460;-66
2023/08/06 10:45:55;;;;;;;1.40;0.40;;;;;;;;;;4936014;29;20495;-66
2023/08/06 10:48:31;;;;;;;1.40;0.40;;;;;;;;;;4933657;29;20499;-68
2023/08/06 10:50:58;;;;;;;1.50;0.50;;;;;;;;;;4934977;29;20444;-68
2023/08/06 10:53:25;;;;;;;2.43;0.40;;;;;;;;;;4937505;29;20439;-68
2023/08/06 10:55:52;;;;;;;2.23;0.60;;;;;;;;;;4937425;29;21076;-66
2023/08/06 10:58:19;;;;;;;1.40;0.40;;;;;;;;;;4934399;29;20534;-67
2023/08/06 11:00:47;;;;;;;1.63;0.70;;;;;;;;;;4936663;29;20467;-68
2023/08/06 11:03:17;;;;;;;1.50;0.50;;;;;;;;;;4936564;29;20499;-67
2023/08/06 11:05:49;;;;;;;1.40;0.40;;;;;;;;;;4935538;29;20437;-67
2023/08/06 11:08:24;;;;;;;1.40;0.40;;;;;;;;;;4934057;29;20978;-69
2023/08/06 11:10:51;;;;;;;1.50;0.50;;;;;;;;;;4937178;29;20482;-69
2023/08/06 11:13:19;;;;;;;1.67;0.60;;;;;;;;;;4937590;29;20527;-68
2023/08/06 11:15:46;;;;;;;1.43;0.50;;;;;;;;;;4938794;29;20487;-68
2023/08/06 11:18:13;;;;;;;1.60;0.60;;;;;;;;;;4939487;28;20566;-67
2023/08/06 11:20:42;;;;;;;1.40;0.40;;;;;;;;;;4938920;29;20494;-68
2023/08/06 11:23:11;;;;;;;1.40;0.50;;;;;;;;;;4937043;29;20472;-67
2023/08/06 11:25:38;;;;;;;1.40;0.40;;;;;;;;;;4938020;29;20462;-68
2023/08/06 11:28:06;;;;;;;1.70;0.50;;;;;;;;;;4935671;29;21026;-69
2023/08/06 11:30:33;;;;;;;2.07;0.70;;;;;;;;;;4935540;29;20460;-68
2023/08/06 11:33:00;;;;;;;1.70;0.60;;;;;;;;;;4935102;29;20516;-68
2023/08/06 11:35:28;;;;;;;1.40;0.50;;;;;;;;;;4937152;29;20609;-67
2023/08/06 11:37:56;;;;;;;1.73;0.60;;;;;;;;;;4935297;29;20451;-68
2023/08/06 11:40:23;;;;;;;1.40;0.50;;;;;;;;;;4933185;29;20551;-67
2023/08/06 11:42:52;;;;;;;1.43;0.50;;;;;;;;;;4934775;29;20511;-69
2023/08/06 11:45:23;;;;;;;1.70;0.60;;;;;;;;;;4937069;29;20869;-68
2023/08/06 11:47:52;;;;;;;1.97;0.90;;;;;;;;;;4936494;29;20454;-67
2023/08/06 11:50:23;;;;;;;1.93;0.80;;;;;;;;;;4931844;29;20486;-68
2023/08/06 11:52:55;;;;;;;1.60;0.63;;;;;;;;;;4934926;29;20982;-69
2023/08/06 11:55:24;;;;;;;1.40;0.50;;;;;;;;;;4934668;29;20515;-67
2023/08/06 11:57:52;;;;;;;1.67;0.70;;;;;;;;;;4936288;29;20483;-67
2023/08/06 12:00:21;;;;;;;1.43;0.50;;;;;;;;;;4934038;29;20842;-67
2023/08/06 12:02:50;;;;;;;1.47;0.53;;;;;;;;;;4936349;29;21044;-68
2023/08/06 12:05:20;;;;;;;1.50;0.60;;;;;;;;;;4935251;29;20519;-67
2023/08/06 12:07:48;;;;;;;3.83;0.83;;;;;;;;;;4939279;29;20514;-68
2023/08/06 12:10:16;;;;;;;1.60;0.60;;;;;;;;;;4935772;29;20476;-70
2023/08/06 12:12:44;;;;;;;1.40;0.50;;;;;;;;;;4937293;28;20570;-67
2023/08/06 12:15:12;;;;;;;1.57;0.57;;;;;;;;;;4935030;29;20644;-69
2023/08/06 12:17:39;;;;;;;1.90;0.70;;;;;;;;;;4933057;29;20466;-68
2023/08/06 12:20:07;;;;;;;1.80;0.70;;;;;;;;;;4937970;29;20523;-68
2023/08/06 12:22:35;;;;;;;1.80;0.60;;;;;;;;;;4932361;29;20483;-67
2023/08/06 12:25:03;;;;;;;1.87;1.00;;;;;;;;;;4933556;29;20503;-68
2023/08/06 12:27:30;;;;;;;1.50;0.60;;;;;;;;;;4934966;29;20464;-68
2023/08/06 12:29:59;;;;;;;1.67;0.70;;;;;;;;;;4934421;29;20463;-68
2023/08/06 12:32:26;;;;;;;2.23;0.73;;;;;;;;;;4933869;28;20483;-68
2023/08/06 12:34:53;;;;;;;1.83;0.53;;;;;;;;;;4937077;29;20582;-68
2023/08/06 12:37:21;;;;;;;1.40;0.50;;;;;;;;;;4934606;29;20460;-68
2023/08/06 12:39:48;;;;;;;1.57;0.80;;;;;;;;;;4929945;29;20463;-68
2023/08/06 12:42:15;;;;;;;2.83;0.70;;;;;;;;;;4932823;29;20507;-68
2023/08/06 12:44:42;;;;;;;1.80;0.70;;;;;;;;;;4942073;29;20476;-68
2023/08/06 12:47:11;;;;;;;1.70;0.60;;;;;;;;;;4937851;29;20479;-68
2023/08/06 12:49:38;;;;;;;2.00;0.70;;;;;;;;;;4934472;29;20503;-69
2023/08/06 12:52:07;;;;;;;1.57;0.60;;;;;;;;;;4933172;28;20596;-67
2023/08/06 12:54:36;;;;;;;1.50;0.60;;;;;;;;;;4930349;29;20470;-67
2023/08/06 12:57:04;;;;;;;1.40;0.50;;;;;;;;;;4930497;29;20974;-66
2023/08/06 12:59:33;;;;;;;1.50;0.50;;;;;;;;;;4931452;29;20447;-67
2023/08/06 13:02:00;;;;;;;1.40;0.50;;;;;;;;;;4934202;29;21018;-69
2023/08/06 13:04:28;;;;;;;1.53;0.60;;;;;;;;;;4928754;29;20555;-67
2023/08/06 13:06:56;;;;;;;1.50;0.50;;;;;;;;;;4931482;29;20681;-67
2023/08/06 13:09:23;;;;;;;1.50;0.53;;;;;;;;;;4932368;29;20467;-68
2023/08/06 13:11:50;;;;;;;1.67;0.60;;;;;;;;;;4932877;29;20483;-68
2023/08/06 13:14:18;;;;;;;1.50;0.60;;;;;;;;;;4931912;29;20468;-68
2023/08/06 13:16:45;;;;;;;2.13;1.10;;;;;;;;;;4935546;29;20507;-69
2023/08/06 13:19:13;;;;;;;1.70;0.70;;;;;;;;;;4934127;29;20468;-66
2023/08/06 13:22:00;;;;;;;1.50;0.60;;;;;;;;;;4935744;29;20566;-68
2023/08/06 13:24:28;;;;;;;1.97;0.60;;;;;;;;;;4938055;29;20486;-66
2023/08/06 13:26:55;;;;;;;1.70;0.83;;;;;;;;;;4942767;29;20447;-68
2023/08/06 13:29:22;;;;;;;1.40;0.50;;;;;;;;;;4937051;29;20456;-68
2023/08/06 13:31:50;;;;;;;1.50;0.60;;;;;;;;;;4934853;29;20997;-68
2023/08/06 13:34:17;;;;;;;2.20;0.80;;;;;;;;;;4930845;28;20460;-68
2023/08/06 13:36:44;;;;;;;2.03;0.80;;;;;;;;;;4925934;29;21968;-68
2023/08/06 13:39:16;;;;;;;1.60;0.70;;;;;;;;;;4927603;29;20550;-68
2023/08/06 13:41:43;;;;;;;1.43;0.57;;;;;;;;;;4929463;29;21072;-67
2023/08/06 13:44:13;;;;;;;1.50;0.70;;;;;;;;;;4930874;29;20989;-67
2023/08/06 13:46:41;;;;;;;1.50;0.67;;;;;;;;;;4929923;29;20456;-67
2023/08/06 13:49:08;;;;;;;1.50;0.50;;;;;;;;;;4930821;29;20855;-67
2023/08/06 13:51:35;;;;;;;1.50;0.50;;;;;;;;;;4928496;29;20481;-67
2023/08/06 13:54:03;;;;;;;1.40;0.50;;;;;;;;;;4926043;29;20467;-67
2023/08/06 13:56:31;;;;;;;1.90;0.63;;;;;;;;;;4927973;29;20515;-66
2023/08/06 13:58:58;;;;;;;1.40;0.60;;;;;;;;;;4930769;29;20510;-68
2023/08/06 14:01:26;;;;;;;1.60;0.53;;;;;;;;;;4929509;29;20486;-68
2023/08/06 14:03:53;;;;;;;1.37;0.50;;;;;;;;;;4931643;29;20466;-68
2023/08/06 14:06:21;;;;;;;1.37;0.50;;;;;;;;;;4928200;29;20456;-66
2023/08/06 14:08:48;;;;;;;1.40;0.50;;;;;;;;;;4931771;29;20464;-68
2023/08/06 14:11:15;;;;;;;1.50;0.60;;;;;;;;;;4932624;29;20471;-66
2023/08/06 14:13:44;;;;;;;1.40;0.50;;;;;;;;;;4932275;29;20518;-67
2023/08/06 14:16:11;;;;;;;1.77;0.60;;;;;;;;;;4932064;29;20491;-67
2023/08/06 14:18:38;;;;;;;1.50;0.67;;;;;;;;;;4929683;29;20851;-66
2023/08/06 14:21:06;;;;;;;1.40;0.60;;;;;;;;;;4931472;29;20463;-68
2023/08/06 14:23:33;;;;;;;1.93;0.70;;;;;;;;;;4932954;28;20554;-68
2023/08/06 14:26:00;;;;;;;1.40;0.50;;;;;;;;;;4934062;29;20507;-66
2023/08/06 14:28:27;;;;;;;1.30;0.40;;;;;;;;;;4934961;29;20636;-66
2023/08/06 14:30:56;;;;;;;1.70;0.60;;;;;;;;;;4930467;29;20475;-66
2023/08/06 14:33:23;;;;;;;1.60;0.60;;;;;;;;;;4933246;29;20460;-67
2023/08/06 14:35:50;;;;;;;1.40;0.70;;;;;;;;;;4936257;29;20530;-65
2023/08/06 14:38:17;;;;;;;1.40;0.60;;;;;;;;;;4930224;29;20573;-66
2023/08/06 14:40:45;;;;;;;1.50;0.60;;;;;;;;;;4933855;28;20610;-66
2023/08/06 14:43:12;;;;;;;1.60;0.77;;;;;;;;;;4932656;29;20519;-66
2023/08/06 14:45:40;;;;;;;1.40;0.40;;;;;;;;;;4932467;28;20550;-66